Time;durP1;ratioP1;P1;durP2;ratioP2;P2;SDS_P1;SDS_P2;PMS_P1;PMS_P2;Temp;Humidity;BMP_temperature;BMP_pressure;BME280_temperature;BME280_humidity;BME280_pressure;Samples;Min_cycle;Max_cycle;Signal;HPM_P1;HPM_P2
2022/09/17 00:02:24;;;;;;;6.70;3.63;;;11.00;84.50;;;9.60;100.00;95500.41;4943837;28;20044;-66
2022/09/17 00:04:50;;;;;;;6.15;3.60;;;11.10;84.50;;;9.60;100.00;95495.94;4938597;28;20051;-67
2022/09/17 00:07:15;;;;;;;5.22;3.58;;;11.10;84.70;;;9.61;100.00;95496.75;4957672;28;20106;-67
2022/09/17 00:09:42;;;;;;;4.93;3.30;;;11.10;84.70;;;9.61;100.00;95502.00;4958689;28;20042;-67
2022/09/17 00:12:07;;;;;;;5.45;3.20;;;11.20;84.50;;;9.65;100.00;95501.41;4946920;28;20039;-68
2022/09/17 00:14:33;;;;;;;7.35;3.30;;;11.20;84.60;;;9.68;100.00;95508.91;4960514;28;20116;-68
2022/09/17 00:16:59;;;;;;;4.65;2.60;;;11.20;84.50;;;9.72;100.00;95501.44;4932864;28;20070;-67
2022/09/17 00:19:25;;;;;;;5.05;2.80;;;11.30;84.30;;;9.74;100.00;95508.13;4958151;28;20035;-67
2022/09/17 00:21:50;;;;;;;3.95;2.83;;;11.40;84.30;;;9.78;100.00;95504.09;4930695;28;20027;-67
2022/09/17 00:24:17;;;;;;;3.20;2.15;;;11.40;84.20;;;9.81;100.00;95503.69;4942852;28;22331;-66
2022/09/17 00:26:42;;;;;;;11.73;2.30;;;11.40;83.60;;;9.83;100.00;95506.13;4943771;28;20081;-67
2022/09/17 00:29:08;;;;;;;6.85;2.55;;;11.30;83.60;;;9.85;100.00;95498.03;4958657;28;20031;-67
2022/09/17 00:31:34;;;;;;;4.07;2.30;;;11.40;83.30;;;9.86;100.00;95499.66;4976104;28;20030;-67
2022/09/17 00:34:00;;;;;;;4.38;2.33;;;11.40;83.20;;;9.86;100.00;95497.03;4943608;28;20134;-67
2022/09/17 00:36:26;;;;;;;2.67;2.05;;;11.50;83.30;;;9.89;100.00;95499.25;4954679;28;20066;-67
2022/09/17 00:38:53;;;;;;;2.72;1.80;;;11.50;83.10;;;9.89;100.00;95499.25;4949636;28;20027;-67
2022/09/17 00:41:20;;;;;;;2.70;1.42;;;11.50;82.80;;;9.88;100.00;95501.06;4947515;28;20050;-68
2022/09/17 00:43:49;;;;;;;2.60;1.20;;;11.50;82.10;;;9.88;100.00;95506.31;4960093;28;20138;-68
2022/09/17 00:46:32;;;;;;;2.72;1.50;;;11.50;82.30;;;9.88;100.00;95508.13;4948518;28;20027;-67
2022/09/17 00:49:30;;;;;;;2.65;1.50;;;11.50;82.30;;;9.89;100.00;95501.88;4944562;28;22359;-68
2022/09/17 00:52:04;;;;;;;4.25;1.35;;;11.40;82.00;;;9.87;100.00;95498.66;4955467;28;20028;-68
2022/09/17 00:54:30;;;;;;;2.03;1.20;;;11.40;82.10;;;9.85;100.00;95498.84;4947175;28;20041;-67
2022/09/17 00:56:56;;;;;;;2.10;1.30;;;11.40;81.90;;;9.79;100.00;95495.19;4956104;28;20379;-67
2022/09/17 00:59:21;;;;;;;1.77;1.25;;;11.40;81.80;;;9.78;100.00;95509.34;4949610;28;20110;-68
2022/09/17 01:01:47;;;;;;;2.40;1.40;;;11.30;81.80;;;9.74;100.00;95502.88;4968114;28;21262;-68
2022/09/17 01:04:17;;;;;;;1.45;0.98;;;11.20;81.60;;;9.70;100.00;95506.88;4958296;28;20160;-68
2022/09/17 01:07:25;;;;;;;2.70;1.53;;;11.20;81.70;;;9.66;100.00;95508.28;4943680;28;20122;-69
2022/09/17 01:10:12;;;;;;;2.80;1.20;;;11.10;81.60;;;9.61;100.00;95515.94;4958040;28;20104;-69
2022/09/17 01:12:56;;;;;;;2.55;1.40;;;11.10;81.80;;;9.57;100.00;95522.59;4958119;28;20084;-68
2022/09/17 01:15:48;;;;;;;2.65;1.70;;;11.10;82.20;;;9.53;100.00;95524.00;4975868;28;20043;-68
2022/09/17 01:18:49;;;;;;;2.28;1.58;;;11.00;82.40;;;9.49;100.00;95528.00;4957235;28;20050;-69
2022/09/17 01:21:53;;;;;;;2.72;1.60;;;11.00;82.60;;;9.45;100.00;95524.97;4962003;28;20537;-69
2022/09/17 01:25:07;;;;;;;6.45;1.88;;;10.90;82.30;;;9.41;100.00;95518.50;4952962;28;20042;-69
2022/09/17 01:27:47;;;;;;;2.22;1.40;;;10.90;82.70;;;9.41;100.00;95510.63;4967378;28;20124;-68
2022/09/17 01:30:37;;;;;;;3.67;1.60;;;11.00;82.70;;;9.40;100.00;95516.06;4958619;28;20561;-68
2022/09/17 01:33:21;;;;;;;2.70;1.50;;;11.00;82.90;;;9.40;100.00;95516.06;4960363;28;20145;-69
2022/09/17 01:36:13;;;;;;;3.13;1.50;;;10.90;82.90;;;9.40;100.00;95510.81;4962048;28;20043;-70
2022/09/17 01:38:48;;;;;;;3.63;1.45;;;11.00;83.10;;;9.39;100.00;95509.19;4940552;28;20043;-67
2022/09/17 01:41:32;;;;;;;2.67;1.50;;;11.00;83.00;;;9.39;100.00;95494.25;4957706;28;20043;-66
2022/09/17 01:44:11;;;;;;;2.63;1.70;;;11.00;82.90;;;9.39;100.00;95498.69;4956130;28;20055;-67
2022/09/17 01:46:46;;;;;;;3.58;1.77;;;11.00;83.00;;;9.37;100.00;95496.28;4960447;28;20469;-68
2022/09/17 01:49:12;;;;;;;3.03;1.65;;;10.90;82.90;;;9.34;100.00;95495.88;4945715;28;20039;-67
2022/09/17 01:51:40;;;;;;;2.58;1.70;;;10.80;82.80;;;9.31;100.00;95504.13;4922077;28;20475;-67
2022/09/17 01:54:29;;;;;;;2.10;1.70;;;10.80;82.80;;;9.30;100.00;95511.19;4945148;28;20043;-68
2022/09/17 01:57:09;;;;;;;3.00;1.88;;;10.80;83.10;;;9.30;100.00;95507.75;4962887;28;20039;-68
2022/09/17 01:59:45;;;;;;;6.13;2.30;;;10.70;83.20;;;9.30;100.00;95507.75;4921748;28;20081;-67
2022/09/17 02:02:33;;;;;;;4.80;2.00;;;10.70;83.40;;;9.28;100.00;95513.22;4913565;28;20114;-68
2022/09/17 02:05:18;;;;;;;3.45;2.22;;;10.70;83.80;;;9.27;100.00;95510.75;4953820;28;20035;-67
2022/09/17 02:08:07;;;;;;;4.50;2.30;;;10.70;83.70;;;9.26;100.00;95517.00;4948855;28;20113;-68
2022/09/17 02:10:36;;;;;;;3.95;2.00;;;10.80;83.60;;;9.25;100.00;95507.50;4960830;28;20040;-68
2022/09/17 02:13:18;;;;;;;2.85;2.10;;;10.70;83.90;;;9.25;100.00;95512.75;4948973;28;20039;-68
2022/09/17 02:15:50;;;;;;;3.20;2.05;;;10.80;83.50;;;9.22;100.00;95519.22;4966955;28;20495;-68
2022/09/17 02:18:40;;;;;;;3.05;1.88;;;10.80;83.50;;;9.23;100.00;95514.78;4943525;28;20035;-68
2022/09/17 02:21:07;;;;;;;7.22;2.47;;;10.70;83.50;;;9.24;100.00;95513.75;5000898;28;20036;-68
2022/09/17 02:23:35;;;;;;;5.15;2.15;;;10.80;83.30;;;9.24;100.00;95511.13;5024337;28;20062;-68
2022/09/17 02:26:10;;;;;;;2.42;1.88;;;10.80;83.20;;;9.27;100.00;95511.56;4942955;28;20486;-67
2022/09/17 02:28:49;;;;;;;3.35;2.40;;;10.80;83.20;;;9.28;100.00;95520.25;4963835;28;20040;-68
2022/09/17 02:31:14;;;;;;;4.05;2.40;;;10.80;83.10;;;9.30;100.00;95520.88;5011477;28;20127;-68
2022/09/17 02:33:41;;;;;;;3.20;2.35;;;10.90;83.10;;;9.30;100.00;95523.50;4981230;28;20118;-68
2022/09/17 02:36:07;;;;;;;4.78;2.28;;;10.80;82.70;;;9.30;100.00;95515.63;4956644;28;20043;-68
2022/09/17 02:38:33;;;;;;;5.82;2.42;;;10.80;82.50;;;9.29;100.00;95511.38;4933871;28;20035;-68
2022/09/17 02:41:20;;;;;;;3.20;2.30;;;10.80;82.40;;;9.28;100.00;95502.72;4961541;28;20664;-68
2022/09/17 02:44:26;;;;;;;2.95;2.03;;;10.80;82.30;;;9.25;100.00;95499.63;4948418;28;20034;-68
2022/09/17 02:47:24;;;;;;;2.78;2.03;;;10.70;82.30;;;9.19;100.00;95491.56;4936263;28;20035;-68
2022/09/17 02:50:23;;;;;;;3.33;2.30;;;10.70;82.40;;;9.17;100.00;95490.94;4978390;28;20100;-68
2022/09/17 02:53:13;;;;;;;5.32;2.50;;;10.70;82.40;;;9.14;100.00;95496.56;4952121;28;20478;-68
2022/09/17 02:56:12;;;;;;;4.07;2.10;;;10.60;82.00;;;9.06;100.00;95488.88;4969119;28;20040;-68
2022/09/17 02:58:56;;;;;;;2.70;2.17;;;10.50;82.20;;;9.01;100.00;95482.56;4965453;28;20425;-68
2022/09/17 03:01:34;;;;;;;4.82;1.80;;;10.50;81.80;;;8.98;100.00;95481.16;4948652;28;20066;-69
2022/09/17 03:04:01;;;;;;;4.55;2.08;;;10.40;81.90;;;8.94;100.00;95476.50;4946185;28;20442;-69
2022/09/17 03:06:27;;;;;;;2.92;1.63;;;10.30;82.10;;;8.90;100.00;95478.69;4944478;28;20031;-69
2022/09/17 03:08:52;;;;;;;3.00;2.03;;;10.30;82.10;;;8.89;100.00;95471.84;4942919;28;20031;-69
2022/09/17 03:11:18;;;;;;;5.03;2.22;;;10.20;82.20;;;8.84;100.00;95474.22;4958027;28;20140;-68
2022/09/17 03:13:44;;;;;;;5.13;2.95;;;10.20;82.40;;;8.80;100.00;95463.28;4941954;28;20134;-69
2022/09/17 03:16:10;;;;;;;4.13;2.05;;;10.20;82.60;;;8.77;100.00;95463.69;4964281;28;20153;-67
2022/09/17 03:18:35;;;;;;;4.78;2.40;;;10.10;82.80;;;8.74;100.00;95458.03;4961555;28;20058;-66
2022/09/17 03:21:01;;;;;;;4.68;2.30;;;10.10;82.60;;;8.71;100.00;95453.16;4971660;28;20075;-67
2022/09/17 03:23:27;;;;;;;2.78;1.92;;;10.10;82.60;;;8.66;100.00;95451.13;4960535;28;20140;-67
2022/09/17 03:25:54;;;;;;;5.15;1.92;;;10.10;82.60;;;8.62;100.00;95449.09;4954253;28;20070;-67
2022/09/17 03:28:19;;;;;;;3.40;2.15;;;10.00;82.70;;;8.58;100.00;95451.25;4959915;28;20124;-67
2022/09/17 03:30:45;;;;;;;4.18;2.20;;;9.90;82.70;;;8.54;100.00;95453.47;4961025;28;20029;-67
2022/09/17 03:33:11;;;;;;;5.45;2.13;;;10.00;82.70;;;8.50;100.00;95452.22;4939745;28;20039;-68
2022/09/17 03:35:37;;;;;;;4.72;2.10;;;10.00;82.70;;;8.50;100.00;95454.03;4963581;28;20070;-69
2022/09/17 03:38:03;;;;;;;3.70;1.90;;;10.00;82.80;;;8.48;100.00;95461.28;4951672;28;20122;-73
2022/09/17 03:40:28;;;;;;;4.85;2.10;;;9.90;82.60;;;8.43;100.00;95456.63;4955183;28;20652;-69
2022/09/17 03:42:54;;;;;;;3.50;1.90;;;9.80;82.70;;;8.40;100.00;95464.06;4939559;28;20126;-68
2022/09/17 03:45:20;;;;;;;3.08;1.98;;;9.90;82.60;;;8.36;100.00;95468.84;4959533;28;20050;-69
2022/09/17 03:47:45;;;;;;;4.70;2.10;;;9.80;82.50;;;8.33;100.00;95469.19;4962511;28;20050;-69
2022/09/17 03:50:11;;;;;;;4.50;2.10;;;9.80;82.40;;;8.31;100.00;95468.59;4989816;28;20061;-70
2022/09/17 03:52:37;;;;;;;3.70;2.03;;;9.80;82.60;;;8.29;100.00;95471.41;4974004;28;20032;-68
2022/09/17 03:55:03;;;;;;;2.50;2.08;;;9.80;82.50;;;8.26;100.00;95476.22;5018145;28;20031;-69
2022/09/17 03:57:29;;;;;;;2.95;1.77;;;9.80;82.60;;;8.24;100.00;95478.22;5052833;28;20046;-69
2022/09/17 03:59:54;;;;;;;3.50;1.90;;;9.80;82.50;;;8.23;100.00;95477.41;4956392;28;20118;-70
2022/09/17 04:02:20;;;;;;;3.40;1.90;;;9.70;82.50;;;8.19;100.00;95467.50;4995860;28;20053;-69
2022/09/17 04:04:46;;;;;;;3.22;2.00;;;9.70;82.50;;;8.17;100.00;95466.88;4993068;28;20027;-69
2022/09/17 04:07:11;;;;;;;4.05;1.90;;;9.70;82.60;;;8.15;100.00;95466.25;5017861;28;20051;-69
2022/09/17 04:09:37;;;;;;;2.92;2.03;;;9.70;82.80;;;8.13;100.00;95460.38;4948773;28;20042;-70
2022/09/17 04:12:03;;;;;;;3.92;1.77;;;9.60;83.00;;;8.13;100.00;95458.56;4946606;28;20478;-70
2022/09/17 04:14:29;;;;;;;2.55;1.73;;;9.70;82.70;;;8.13;100.00;95457.75;4981043;28;20455;-69
2022/09/17 04:16:54;;;;;;;6.18;2.70;;;9.60;82.80;;;8.13;100.00;95457.75;4968873;28;20421;-69
2022/09/17 04:19:20;;;;;;;14.20;8.93;;;9.60;82.80;;;8.12;100.00;95458.75;4964380;28;20038;-69
2022/09/17 04:21:46;;;;;;;13.57;9.85;;;9.60;83.60;;;8.12;100.00;95456.13;4973770;28;20385;-68
2022/09/17 04:24:12;;;;;;;6.65;2.45;;;9.70;83.80;;;8.10;100.00;95460.75;4991847;28;20035;-69
2022/09/17 04:26:37;;;;;;;2.72;1.67;;;9.60;83.50;;;8.11;100.00;95459.75;4953058;28;20076;-69
2022/09/17 04:29:03;;;;;;;10.98;7.53;;;9.60;83.50;;;8.09;100.00;95459.94;4958635;28;20055;-70
2022/09/17 04:31:29;;;;;;;21.27;14.75;;;9.60;83.30;;;8.08;100.00;95465.38;4964800;28;20051;-71
2022/09/17 04:33:55;;;;;;;8.15;5.30;;;9.60;83.60;;;8.11;100.00;95462.38;5003527;28;20032;-71
2022/09/17 04:36:20;;;;;;;6.57;2.55;;;9.70;83.10;;;8.12;100.00;95462.19;4984492;28;20031;-69
2022/09/17 04:38:49;;;;;;;5.20;1.95;;;9.70;83.10;;;8.13;100.00;95463.00;5026680;28;20109;-69
2022/09/17 04:41:15;;;;;;;6.70;3.40;;;9.70;82.80;;;8.13;100.00;95470.84;4981940;28;20395;-70
2022/09/17 04:43:41;;;;;;;6.43;3.13;;;9.70;82.70;;;8.10;100.00;95479.09;4968632;28;20073;-69
2022/09/17 04:46:06;;;;;;;12.40;7.75;;;9.60;82.60;;;8.06;100.00;95480.47;4956409;28;20557;-70
2022/09/17 04:48:32;;;;;;;22.55;15.65;;;9.60;82.80;;;8.09;100.00;95485.34;4966194;28;20042;-70
2022/09/17 04:50:58;;;;;;;13.00;6.93;;;9.60;83.00;;;8.08;100.00;95481.91;5043236;28;20029;-69
2022/09/17 04:53:24;;;;;;;6.75;4.18;;;9.60;82.70;;;8.06;100.00;95480.47;5068625;28;20051;-70
2022/09/17 04:55:49;;;;;;;6.00;2.80;;;9.60;82.60;;;8.07;100.00;95484.72;5051395;28;20090;-69
2022/09/17 04:58:15;;;;;;;5.63;3.45;;;9.60;82.50;;;8.05;100.00;95489.31;5048711;28;20040;-70
2022/09/17 05:00:41;;;;;;;8.15;4.10;;;9.60;82.60;;;8.06;100.00;95490.94;5030918;28;20056;-70
2022/09/17 05:03:07;;;;;;;7.13;2.83;;;9.50;82.60;;;8.03;100.00;95499.19;5068212;28;20044;-69
2022/09/17 05:05:32;;;;;;;3.33;1.70;;;9.40;82.60;;;8.01;100.00;95504.63;5051788;28;20112;-70
2022/09/17 05:07:58;;;;;;;9.75;4.60;;;9.50;82.50;;;8.02;100.00;95515.91;5053410;28;20044;-70
2022/09/17 05:10:25;;;;;;;9.38;5.72;;;9.60;82.60;;;8.04;100.00;95542.72;5010140;28;20526;-70
2022/09/17 05:12:53;;;;;;;5.47;3.30;;;9.60;82.80;;;8.06;100.00;95553.81;4953048;28;20119;-71
2022/09/17 05:15:18;;;;;;;6.90;1.85;;;9.60;82.80;;;8.07;100.00;95579.00;4967088;28;20034;-70
2022/09/17 05:17:45;;;;;;;5.43;1.80;;;9.60;82.60;;;8.06;100.00;95585.25;4949811;28;20069;-70
2022/09/17 05:20:11;;;;;;;3.22;1.45;;;9.60;82.40;;;8.04;100.00;95592.47;4972800;28;20032;-71
2022/09/17 05:22:50;;;;;;;6.45;1.60;;;9.60;82.60;;;8.02;100.00;95594.47;4947780;28;20051;-70
2022/09/17 05:25:17;;;;;;;4.75;1.70;;;9.60;82.80;;;8.05;100.00;95596.72;4931706;29;20573;-71
2022/09/17 05:27:43;;;;;;;3.03;1.50;;;9.60;82.80;;;8.05;100.00;95601.94;4960667;28;20033;-70
2022/09/17 05:30:09;;;;;;;5.60;1.67;;;9.60;82.80;;;8.07;100.00;95602.56;5025944;28;20094;-70
2022/09/17 05:32:35;;;;;;;5.35;2.00;;;9.70;82.80;;;8.12;100.00;95605.44;5000925;28;20423;-70
2022/09/17 05:35:02;;;;;;;3.83;1.90;;;9.70;83.20;;;8.14;100.00;95616.53;4969689;28;20039;-70
2022/09/17 05:37:28;;;;;;;2.97;1.50;;;9.70;82.90;;;8.15;100.00;95621.63;5004332;28;20047;-68
2022/09/17 05:39:54;;;;;;;6.35;1.80;;;9.90;83.00;;;8.18;100.00;95625.69;5008963;28;20032;-73
2022/09/17 05:42:19;;;;;;;4.75;1.70;;;9.80;82.40;;;8.22;100.00;95629.56;5015937;28;20373;-69
2022/09/17 05:44:45;;;;;;;12.52;6.00;;;9.80;82.50;;;8.24;100.00;95635.41;5051170;28;20052;-68
2022/09/17 05:47:11;;;;;;;15.30;9.35;;;9.90;83.00;;;8.28;100.00;95642.72;4980786;28;20023;-70
2022/09/17 05:49:36;;;;;;;13.80;9.85;;;10.00;82.80;;;8.30;100.00;95637.28;5008219;28;20030;-69
2022/09/17 05:52:02;;;;;;;7.47;3.10;;;10.00;82.90;;;8.35;100.00;95645.41;4966381;28;20407;-69
2022/09/17 05:54:28;;;;;;;3.97;2.00;;;10.10;83.00;;;8.37;100.00;95646.03;4967150;28;20536;-70
2022/09/17 05:56:54;;;;;;;5.40;1.80;;;10.00;82.30;;;8.39;100.00;95644.06;4962814;28;20030;-70
2022/09/17 05:59:20;;;;;;;4.25;1.83;;;10.00;82.70;;;8.42;100.00;95646.31;4975861;28;20047;-70
2022/09/17 06:01:46;;;;;;;6.32;1.95;;;10.10;82.40;;;8.45;100.00;95645.94;4950339;28;20038;-69
2022/09/17 06:04:12;;;;;;;2.65;1.65;;;10.10;82.30;;;8.48;100.00;95640.31;5030861;28;20032;-69
2022/09/17 06:06:40;;;;;;;4.25;1.40;;;10.20;82.30;;;8.51;100.00;95637.31;5015660;28;20056;-69
2022/09/17 06:09:09;;;;;;;5.07;2.05;;;10.20;81.90;;;8.55;100.00;95637.75;5072338;28;20124;-70
2022/09/17 06:11:35;;;;;;;5.85;1.52;;;10.30;81.90;;;8.53;100.00;95635.31;5032627;28;20058;-69
2022/09/17 06:14:01;;;;;;;5.85;1.83;;;10.20;81.70;;;8.54;100.00;95631.69;4968263;28;20089;-69
2022/09/17 06:16:27;;;;;;;3.85;1.25;;;10.20;82.10;;;8.56;100.00;95637.56;5002916;28;20453;-70
2022/09/17 06:18:52;;;;;;;6.00;1.38;;;10.30;81.80;;;8.61;100.00;95638.84;4936183;28;20502;-70
2022/09/17 06:21:20;;;;;;;4.80;1.42;;;10.30;81.90;;;8.65;100.00;95638.28;4994986;28;20122;-69
2022/09/17 06:23:46;;;;;;;4.55;1.70;;;10.40;81.80;;;8.69;100.00;95634.25;5022124;28;20417;-69
2022/09/17 06:26:12;;;;;;;3.50;1.50;;;10.40;81.70;;;8.71;100.00;95632.25;4952190;28;20672;-69
2022/09/17 06:28:38;;;;;;;7.60;1.50;;;10.40;81.50;;;8.73;100.00;95637.31;4980089;28;20063;-68
2022/09/17 06:31:05;;;;;;;3.15;1.60;;;10.40;81.60;;;8.75;100.00;95640.56;4982392;28;20062;-69
2022/09/17 06:33:31;;;;;;;4.30;1.35;;;10.40;81.80;;;8.79;100.00;95640.00;4968940;28;20601;-69
2022/09/17 06:36:01;;;;;;;6.85;1.50;;;10.50;81.80;;;8.84;100.00;95648.13;4967617;28;20724;-69
2022/09/17 06:38:27;;;;;;;9.30;1.52;;;10.50;81.40;;;8.85;100.00;95643.69;5025433;28;20042;-70
2022/09/17 06:40:53;;;;;;;4.85;1.48;;;10.50;81.10;;;8.88;100.00;95640.69;4952558;28;20043;-68
2022/09/17 06:43:19;;;;;;;8.85;1.52;;;10.50;80.90;;;8.90;100.00;95636.06;4968258;28;20034;-70
2022/09/17 06:45:59;;;;;;;5.40;1.48;;;10.60;81.00;;;8.94;100.00;95632.06;4981476;28;20472;-70
2022/09/17 06:48:26;;;;;;;4.75;1.30;;;10.60;80.60;;;8.97;100.00;95623.81;4976574;28;20046;-73
2022/09/17 06:50:53;;;;;;;5.65;1.38;;;10.70;80.50;;;8.99;100.00;95619.16;5032018;28;20389;-74
2022/09/17 06:53:19;;;;;;;3.97;1.70;;;10.70;80.40;;;9.03;100.00;95625.66;4956570;28;20030;-69
2022/09/17 06:55:45;;;;;;;5.45;1.48;;;10.80;80.50;;;9.09;100.00;95634.59;4944002;28;20134;-68
2022/09/17 06:58:11;;;;;;;6.55;1.50;;;10.90;80.00;;;9.13;100.00;95635.84;4967245;28;20027;-67
2022/09/17 07:00:37;;;;;;;3.92;1.33;;;11.00;79.90;;;9.19;100.00;95624.56;5027141;28;20132;-67
2022/09/17 07:03:03;;;;;;;5.47;1.33;;;11.10;79.50;;;9.27;100.00;95631.47;5036132;28;20059;-68
2022/09/17 07:05:28;;;;;;;7.60;1.20;;;11.10;79.10;;;9.32;100.00;95634.34;4950795;28;20047;-68
2022/09/17 07:07:54;;;;;;;4.00;1.25;;;11.10;79.40;;;9.39;100.00;95640.44;4970857;28;20031;-75
2022/09/17 07:10:22;;;;;;;6.38;2.35;;;11.40;79.20;;;9.50;100.00;95637.25;4983237;28;20028;-73
2022/09/17 07:12:48;;;;;;;6.63;1.70;;;11.60;78.10;;;9.62;100.00;95630.47;5000271;28;20165;-73
2022/09/17 07:15:14;;;;;;;4.80;1.40;;;11.80;77.70;;;9.78;100.00;95624.91;4979175;28;20514;-75
2022/09/17 07:17:43;;;;;;;4.07;1.38;;;12.00;76.50;;;9.96;100.00;95610.44;4965924;28;20054;-73
2022/09/17 07:20:09;;;;;;;8.55;1.30;;;12.20;75.70;;;10.17;100.00;95607.66;4985689;28;20456;-74
2022/09/17 07:22:35;;;;;;;10.93;6.20;;;12.60;76.30;;;10.46;100.00;95597.84;4951970;28;20110;-68
2022/09/17 07:25:01;;;;;;;10.18;2.63;;;13.00;75.10;;;10.69;100.00;95595.66;4954068;28;20046;-70
2022/09/17 07:27:27;;;;;;;6.15;1.65;;;13.20;72.80;;;10.89;100.00;95593.81;4950148;28;20039;-72
2022/09/17 07:29:53;;;;;;;6.47;1.67;;;13.40;71.50;;;11.14;100.00;95593.19;5027554;28;20403;-69
2022/09/17 07:32:19;;;;;;;6.68;1.40;;;13.80;70.80;;;11.42;100.00;95599.03;5013054;28;20110;-69
2022/09/17 07:34:45;;;;;;;6.18;1.20;;;14.30;69.70;;;11.74;100.00;95599.13;4954358;28;20422;-69
2022/09/17 07:37:11;;;;;;;6.43;1.40;;;14.60;67.20;;;12.01;100.00;95590.16;4966932;28;20108;-68
2022/09/17 07:39:37;;;;;;;4.18;1.17;;;15.30;65.80;;;12.34;100.00;95595.22;5011526;28;20043;-68
2022/09/17 07:42:03;;;;;;;7.78;1.60;;;15.80;62.20;;;12.59;100.00;95592.63;5005917;28;20170;-68
2022/09/17 07:44:29;;;;;;;16.70;3.92;;;15.40;61.80;;;12.72;100.00;95582.00;4944695;28;20093;-68
2022/09/17 07:46:55;;;;;;;10.48;2.90;;;16.00;62.00;;;12.99;100.00;95581.78;4965072;28;20434;-69
2022/09/17 07:49:21;;;;;;;5.13;1.35;;;16.80;60.00;;;13.23;100.00;95588.91;4973532;28;20046;-68
2022/09/17 07:51:46;;;;;;;3.60;1.10;;;16.70;57.40;;;13.39;100.00;95583.06;4966582;28;20081;-68
2022/09/17 07:54:12;;;;;;;7.50;1.33;;;16.60;56.60;;;13.43;100.00;95573.66;4974322;28;20109;-68
2022/09/17 07:56:38;;;;;;;4.65;1.15;;;16.90;55.40;;;13.59;100.00;95579.41;4993768;28;20042;-68
2022/09/17 07:59:04;;;;;;;5.00;1.02;;;17.70;53.60;;;13.75;99.33;95582.25;5006717;28;20137;-68
2022/09/17 08:01:33;;;;;;;4.05;1.13;;;17.20;55.00;;;13.93;98.27;95580.63;5066463;28;20036;-68
2022/09/17 08:03:59;;;;;;;10.13;1.33;;;17.50;54.40;;;14.09;96.77;95570.25;5031378;28;20038;-68
2022/09/17 08:06:26;;;;;;;6.18;1.35;;;17.30;54.50;;;14.10;94.78;95582.44;4968264;28;20027;-68
2022/09/17 08:08:53;;;;;;;6.95;2.90;;;16.40;56.20;;;14.09;94.02;95587.94;5015131;28;20078;-67
2022/09/17 08:11:21;;;;;;;4.57;1.50;;;16.60;57.00;;;14.23;93.91;95596.50;5069525;28;20450;-68
2022/09/17 08:13:51;;;;;;;10.13;1.42;;;17.50;55.00;;;14.32;91.48;95592.53;4990739;28;20046;-68
2022/09/17 08:16:16;;;;;;;7.03;1.40;;;17.00;55.00;;;14.29;91.26;95592.97;4954414;28;20473;-68
2022/09/17 08:18:43;;;;;;;6.22;1.23;;;16.70;55.60;;;14.30;90.07;95607.81;4966999;28;20042;-68
2022/09/17 08:21:14;;;;;;;4.45;1.20;;;16.30;56.20;;;14.17;87.12;95618.56;4935684;28;20039;-68
2022/09/17 08:23:41;;;;;;;3.83;1.02;;;15.90;57.50;;;13.98;88.71;95615.94;4935920;28;20117;-68
2022/09/17 08:26:12;;;;;;;5.63;1.20;;;15.60;57.30;;;13.81;87.46;95611.50;4982191;28;20572;-67
2022/09/17 08:28:38;;;;;;;4.68;1.17;;;15.30;58.50;;;13.65;89.15;95626.09;4960543;28;20107;-67
2022/09/17 08:31:07;;;;;;;6.13;1.50;;;15.30;59.00;;;13.55;87.94;95623.13;5024180;28;20151;-68
2022/09/17 08:33:34;;;;;;;4.97;1.40;;;15.10;59.00;;;13.46;87.05;95615.50;4966251;28;20065;-68
2022/09/17 08:36:00;;;;;;;4.88;1.10;;;15.10;58.70;;;13.44;88.21;95622.84;4979106;28;20039;-68
2022/09/17 08:38:31;;;;;;;11.35;2.70;;;15.10;59.90;;;13.36;88.35;95620.47;4972378;28;20050;-68
2022/09/17 08:41:09;;;;;;;8.32;2.90;;;14.90;59.30;;;13.29;87.25;95630.28;4978288;28;20134;-68
2022/09/17 08:44:05;;;;;;;4.15;1.17;;;15.00;60.10;;;13.22;85.44;95624.25;4965330;28;20042;-68
2022/09/17 08:46:47;;;;;;;3.92;1.23;;;14.70;59.50;;;13.03;85.89;95633.13;4999849;28;20054;-69
2022/09/17 08:49:39;;;;;;;5.82;2.55;;;14.30;59.70;;;12.87;85.88;95642.38;5029375;28;20614;-68
2022/09/17 08:52:27;;;;;;;8.02;1.70;;;14.30;61.30;;;12.66;86.18;95632.97;4960864;28;20413;-67
2022/09/17 08:55:10;;;;;;;5.55;1.17;;;13.90;60.90;;;12.46;86.59;95625.19;4957020;28;20046;-69
2022/09/17 08:57:55;;;;;;;4.28;1.23;;;13.70;61.10;;;12.22;86.06;95639.94;4981472;28;20031;-68
2022/09/17 09:00:22;;;;;;;3.65;1.00;;;13.30;62.10;;;11.99;88.47;95639.59;4968960;28;20393;-68
2022/09/17 09:03:31;;;;;;;8.98;3.95;;;13.10;64.30;;;11.82;90.98;95657.72;4927476;28;20043;-68
2022/09/17 09:05:56;;;;;;;5.55;1.20;;;13.10;65.60;;;11.66;91.09;95655.50;4957702;28;20498;-68
2022/09/17 09:08:39;;;;;;;4.30;1.25;;;12.80;65.50;;;11.51;92.31;95658.34;4943558;28;20035;-69
2022/09/17 09:11:10;;;;;;;3.83;0.65;;;12.80;66.60;;;11.43;93.70;95671.72;4964985;28;20039;-68
2022/09/17 09:13:41;;;;;;;4.05;1.00;;;12.80;67.20;;;11.39;94.97;95675.00;4947920;28;20058;-67
2022/09/17 09:16:15;;;;;;;5.07;1.25;;;12.80;67.60;;;11.32;95.82;95678.44;4947569;28;20410;-68
2022/09/17 09:18:41;;;;;;;4.95;0.90;;;12.90;67.70;;;11.30;96.53;95682.25;4959359;28;20126;-67
2022/09/17 09:21:29;;;;;;;3.00;0.77;;;12.90;68.40;;;11.25;98.27;95695.22;4982280;28;20045;-67
2022/09/17 09:24:18;;;;;;;2.83;0.73;;;12.70;69.10;;;11.16;99.10;95693.84;4978651;28;20541;-68
2022/09/17 09:26:49;;;;;;;4.53;0.93;;;12.60;69.10;;;11.09;98.66;95691.19;4998050;28;20166;-68
2022/09/17 09:29:35;;;;;;;3.42;1.10;;;12.50;70.10;;;10.98;100.00;95694.41;5020207;28;20115;-67
2022/09/17 09:32:22;;;;;;;3.00;0.70;;;12.40;71.00;;;10.98;100.00;95697.06;4984879;28;20026;-67
2022/09/17 09:34:48;;;;;;;2.17;0.73;;;12.50;70.20;;;10.94;100.00;95703.72;4976856;28;20046;-68
2022/09/17 09:37:30;;;;;;;2.88;0.70;;;12.40;71.20;;;10.87;100.00;95702.94;4975849;28;20119;-67
2022/09/17 09:40:02;;;;;;;3.20;0.80;;;12.30;71.70;;;10.82;100.00;95706.13;4996487;28;20210;-69
2022/09/17 09:42:35;;;;;;;2.80;0.60;;;12.40;71.80;;;10.83;100.00;95706.94;4936905;28;20528;-69
2022/09/17 09:45:49;;;;;;;2.58;0.80;;;12.40;72.20;;;10.76;100.00;95714.81;4984841;28;20032;-68
2022/09/17 09:48:45;;;;;;;1.45;0.73;;;12.30;71.80;;;10.72;100.00;95710.97;4967364;28;20047;-67
2022/09/17 09:51:17;;;;;;;3.85;0.60;;;12.20;71.90;;;10.64;100.00;95713.81;4957803;28;20049;-68
2022/09/17 09:54:12;;;;;;;1.98;0.70;;;11.90;71.50;;;10.61;100.00;95722.88;4990034;28;20040;-67
2022/09/17 09:56:53;;;;;;;9.85;6.80;;;12.10;72.00;;;10.60;100.00;95712.56;4991665;28;20154;-68
2022/09/17 09:59:19;;;;;;;4.07;1.33;;;12.20;72.00;;;10.56;100.00;95711.34;4936465;28;20070;-68
2022/09/17 10:01:45;;;;;;;4.63;1.25;;;12.00;72.20;;;10.50;100.00;95712.13;4966525;28;20479;-67
2022/09/17 10:04:23;;;;;;;2.45;0.70;;;11.90;72.70;;;10.50;100.00;95714.75;4964925;28;20138;-68
2022/09/17 10:06:51;;;;;;;2.25;0.68;;;12.10;72.80;;;10.53;100.00;95709.09;4997894;28;20059;-71
2022/09/17 10:09:20;;;;;;;2.33;0.63;;;12.10;72.60;;;10.55;100.00;95707.88;5002872;28;20043;-71
2022/09/17 10:12:03;;;;;;;3.65;0.80;;;12.10;72.90;;;10.56;100.00;95706.06;5042834;28;20465;-68
2022/09/17 10:14:32;;;;;;;3.67;0.80;;;12.10;73.40;;;10.58;100.00;95704.06;4966571;28;20529;-69
2022/09/17 10:17:19;;;;;;;2.25;0.70;;;12.30;73.40;;;10.64;100.00;95705.91;4936044;28;20068;-76
2022/09/17 10:20:06;;;;;;;4.32;1.00;;;12.40;73.20;;;10.69;100.00;95692.97;4994761;28;20089;-70
2022/09/17 10:22:37;;;;;;;3.17;0.77;;;12.50;72.80;;;10.74;100.00;95693.97;5023135;28;20486;-71
2022/09/17 10:25:04;;;;;;;2.72;0.82;;;12.70;72.90;;;10.88;100.00;95699.28;4942190;28;20027;-70
2022/09/17 10:27:30;;;;;;;3.63;0.90;;;12.80;72.60;;;10.97;100.00;95698.06;4975307;28;20522;-71
2022/09/17 10:30:08;;;;;;;4.10;1.45;;;12.90;72.10;;;11.03;100.00;95692.78;4992611;28;20031;-70
2022/09/17 10:32:34;;;;;;;3.53;0.88;;;12.90;71.50;;;11.12;100.00;95692.63;4975013;28;20036;-71
2022/09/17 10:35:13;;;;;;;3.53;1.02;;;13.00;72.30;;;11.16;100.00;95683.31;4962057;28;20417;-70
2022/09/17 10:37:50;;;;;;;3.95;1.27;;;13.10;71.80;;;11.25;100.00;95689.97;5006024;28;20047;-70